createdAt,value
2023-04-02T00:01:27.189Z,98246.88
2023-04-02T00:04:16.244Z,98255.31
2023-04-02T00:06:49.244Z,98257.69
2023-04-02T00:09:33.606Z,98255.69
2023-04-02T00:12:16.260Z,98261.09
2023-04-02T00:14:50.002Z,98258.94
2023-04-02T00:17:19.034Z,98255.09
2023-04-02T00:19:52.766Z,98259.16
2023-04-02T00:22:22.757Z,98256.09
2023-04-02T00:24:54.067Z,98264.50
2023-04-02T00:27:23.048Z,98254.50
2023-04-02T00:29:53.453Z,98261.53
2023-04-02T00:32:25.788Z,98256.59
2023-04-02T00:34:56.339Z,98260.81
2023-04-02T00:37:27.601Z,98257.38
2023-04-02T00:40:02.047Z,98265.22
2023-04-02T00:42:32.145Z,98261.38
2023-04-02T00:45:02.552Z,98264.59
2023-04-02T00:47:34.221Z,98260.94
2023-04-02T00:50:07.698Z,98270.00
2023-04-02T00:52:36.628Z,98262.19
2023-04-02T00:55:10.451Z,98260.16
2023-04-02T00:57:43.145Z,98261.38
2023-04-02T01:00:21.615Z,98264.59
2023-04-02T01:03:28.667Z,98260.94
2023-04-02T01:06:05.042Z,98267.53
2023-04-02T01:08:43.903Z,98274.53
2023-04-02T01:11:25.835Z,98259.91
2023-04-02T01:13:59.438Z,98274.06
2023-04-02T01:16:36.421Z,98277.09
2023-04-02T01:19:15.099Z,98275.84
2023-04-02T01:21:55.262Z,98278.25
2023-04-02T01:24:26.539Z,98280.63
2023-04-02T01:26:57.691Z,98285.09
2023-04-02T01:29:29.856Z,98280.72
2023-04-02T01:32:01.785Z,98288.66
2023-04-02T01:34:32.169Z,98285.84
2023-04-02T01:37:08.602Z,98281.06
2023-04-02T01:39:47.666Z,98285.28
2023-04-02T01:42:21.193Z,98287.66
2023-04-02T01:44:52.735Z,98293.09
2023-04-02T01:47:24.519Z,98296.47
2023-04-02T01:49:54.563Z,98292.31
2023-04-02T01:52:34.150Z,98298.31
2023-04-02T01:55:03.443Z,98300.34
2023-04-02T01:57:32.229Z,98303.53
2023-04-02T02:00:06.233Z,98304.75
2023-04-02T02:02:35.084Z,98307.94
2023-04-02T02:05:04.468Z,98309.53
2023-04-02T02:07:33.244Z,98310.13
2023-04-02T02:10:02.215Z,98312.72
2023-04-02T02:12:31.107Z,98313.28
2023-04-02T02:14:59.792Z,98312.13
2023-04-02T02:17:33.680Z,98316.34
2023-04-02T02:20:04.960Z,98317.13
2023-04-02T02:22:35.993Z,98325.53
2023-04-02T02:25:07.478Z,98325.91
2023-04-02T02:27:49.455Z,98324.94
2023-04-02T02:30:21.857Z,98324.66
2023-04-02T02:32:56.541Z,98336.19
2023-04-02T02:35:28.283Z,98324.03
2023-04-02T02:37:58.957Z,98339.00
2023-04-02T02:40:30.503Z,98330.97
2023-04-02T02:43:02.881Z,98343.41
2023-04-02T02:45:35.805Z,98334.22
2023-04-02T02:48:11.645Z,98330.03
2023-04-02T02:50:41.149Z,98343.56
2023-04-02T02:53:18.798Z,98341.19
2023-04-02T02:55:48.988Z,98340.44
2023-04-02T02:58:20.050Z,98336.63
2023-04-02T03:00:49.116Z,98337.47
2023-04-02T03:03:23.146Z,98345.66
2023-04-02T03:05:53.705Z,98348.41
2023-04-02T03:08:26.571Z,98354.44
2023-04-02T03:10:57.887Z,98352.03
2023-04-02T03:13:32.670Z,98363.84
2023-04-02T03:16:04.102Z,98366.88
2023-04-02T03:18:39.016Z,98364.03
2023-04-02T03:21:22.909Z,98369.25
2023-04-02T03:23:54.956Z,98363.47
2023-04-02T03:26:28.074Z,98365.28
2023-04-02T03:28:59.570Z,98376.28
2023-04-02T03:31:33.434Z,98371.09
2023-04-02T03:34:05.969Z,98381.28
2023-04-02T03:36:38.289Z,98380.28
2023-04-02T03:39:13.123Z,98381.69
2023-04-02T03:41:45.909Z,98380.84
2023-04-02T03:44:20.684Z,98387.69
2023-04-02T03:46:57.278Z,98385.50
2023-04-02T03:49:31.216Z,98384.28
2023-04-02T03:52:04.727Z,98388.91
2023-04-02T03:54:33.471Z,98389.72
2023-04-02T03:57:02.297Z,98396.88
2023-04-02T03:59:39.179Z,98394.84
2023-04-02T04:02:16.866Z,98406.31
2023-04-02T04:04:47.385Z,98398.09
2023-04-02T04:07:22.750Z,98401.28
2023-04-02T04:09:52.692Z,98407.88
2023-04-02T04:12:28.136Z,98413.91
2023-04-02T04:15:00.983Z,98411.75
2023-04-02T04:17:34.875Z,98411.28
2023-04-02T04:20:15.735Z,98415.53
2023-04-02T04:22:44.614Z,98413.31
2023-04-02T04:25:22.331Z,98414.34
2023-04-02T04:28:05.603Z,98421.97
2023-04-02T04:30:42.667Z,98419.75
2023-04-02T04:33:15.294Z,98433.00
2023-04-02T04:35:49.771Z,98434.59
2023-04-02T04:38:21.737Z,98433.59
2023-04-02T04:40:54.126Z,98437.81
2023-04-02T04:43:30.946Z,98438.59
2023-04-02T04:46:02.042Z,98452.22
2023-04-02T04:48:36.336Z,98449.81
2023-04-02T04:51:10.096Z,98453.94
2023-04-02T04:53:47.405Z,98452.09
2023-04-02T04:56:19.755Z,98455.69
2023-04-02T04:58:51.148Z,98454.25
2023-04-02T05:01:23.018Z,98458.47
2023-04-02T05:03:55.111Z,98466.69
2023-04-02T05:06:35.499Z,98472.31
2023-04-02T05:09:09.258Z,98466.53
2023-04-02T05:11:41.611Z,98471.53
2023-04-02T05:14:19.868Z,98478.34
2023-04-02T05:16:52.779Z,98470.13
2023-04-02T05:19:25.170Z,98475.97
2023-04-02T05:21:58.838Z,98475.97
2023-04-02T05:24:40.092Z,98486.75
2023-04-02T05:27:19.046Z,98481.19
2023-04-02T05:29:52.156Z,98488.78
2023-04-02T05:32:23.044Z,98483.78
2023-04-02T05:34:54.818Z,98489.38
2023-04-02T05:37:27.636Z,98492.38
2023-04-02T05:39:58.278Z,98498.81
2023-04-02T05:42:29.294Z,98499.59
2023-04-02T05:45:06.266Z,98509.03
2023-04-02T05:47:40.642Z,98508.81
2023-04-02T05:50:19.110Z,98511.44
2023-04-02T05:52:51.776Z,98517.66
2023-04-02T05:55:40.066Z,98525.28
2023-04-02T05:58:34.567Z,98521.28
2023-04-02T06:01:17.460Z,98528.88
2023-04-02T06:03:52.309Z,98537.72
2023-04-02T06:06:29.032Z,98539.53
2023-04-02T06:09:02.372Z,98541.13
2023-04-02T06:11:32.585Z,98537.72
2023-04-02T06:14:01.278Z,98536.91
2023-04-02T06:16:34.255Z,98544.09
2023-04-02T06:19:03.196Z,98544.09
2023-04-02T06:21:32.743Z,98555.13
2023-04-02T06:24:04.549Z,98555.53
2023-04-02T06:26:35.080Z,98559.75
2023-04-02T06:29:08.005Z,98556.94
2023-04-02T06:31:37.823Z,98558.13
2023-04-02T06:34:07.987Z,98565.72
2023-04-02T06:36:36.547Z,98569.72
2023-04-02T06:39:09.329Z,98570.94
2023-04-02T06:41:37.933Z,98572.72
2023-04-02T06:44:10.590Z,98579.97
2023-04-02T06:46:42.349Z,98588.97
2023-04-02T06:49:18.371Z,98593.41
2023-04-02T06:51:47.768Z,98601.41
2023-04-02T06:54:19.014Z,98604.66
2023-04-02T06:56:49.146Z,98612.69
2023-04-02T06:59:19.192Z,98613.09
2023-04-02T07:01:49.881Z,98617.13
2023-04-02T07:04:19.419Z,98622.28
2023-04-02T07:06:48.121Z,98623.88
2023-04-02T07:09:18.143Z,98626.28
2023-04-02T07:11:47.042Z,98632.09
2023-04-02T07:14:15.966Z,98630.69
2023-04-02T07:16:45.390Z,98636.06
2023-04-02T07:19:18.486Z,98634.63
2023-04-02T07:21:47.537Z,98639.06
2023-04-02T07:24:16.287Z,98643.44
2023-04-02T07:26:48.059Z,98645.63
2023-04-02T07:29:17.419Z,98647.63
2023-04-02T07:31:46.205Z,98657.03
2023-04-02T07:34:14.905Z,98652.22
2023-04-02T07:36:43.613Z,98660.38
2023-04-02T07:39:12.283Z,98653.97
2023-04-02T07:41:56.597Z,98670.22
2023-04-02T07:44:25.399Z,98665.00
2023-04-02T07:46:54.090Z,98671.81
2023-04-02T07:49:23.061Z,98671.00
2023-04-02T07:51:52.642Z,98675.44
2023-04-02T07:54:21.260Z,98677.84
2023-04-02T07:56:49.906Z,98682.66
2023-04-02T07:59:19.855Z,98689.47
2023-04-02T08:01:48.515Z,98692.22
2023-04-02T08:04:19.605Z,98696.22
2023-04-02T08:06:49.272Z,98697.63
2023-04-02T08:09:18.259Z,98711.44
2023-04-02T08:11:46.948Z,98698.59
2023-04-02T08:14:15.957Z,98711.44
2023-04-02T08:16:47.951Z,98712.19
2023-04-02T08:19:16.641Z,98710.97
2023-04-02T08:21:45.673Z,98718.59
2023-04-02T08:24:14.382Z,98716.13
2023-04-02T08:26:45.007Z,98717.38
2023-04-02T08:29:14.163Z,98722.53
2023-04-02T08:31:42.836Z,98729.78
2023-04-02T08:34:13.125Z,98724.72
2023-04-02T08:36:44.587Z,98726.09
2023-04-02T08:39:13.463Z,98731.72
2023-04-02T08:41:46.313Z,98736.31
2023-04-02T08:44:23.531Z,98742.91
2023-04-02T08:46:54.974Z,98743.72
2023-04-02T08:49:30.424Z,98743.50
2023-04-02T08:51:59.225Z,98741.28
2023-04-02T08:54:30.483Z,98751.06
2023-04-02T08:57:02.154Z,98741.97
2023-04-02T08:59:34.300Z,98754.44
2023-04-02T09:02:22.238Z,98755.56
2023-04-02T09:04:52.717Z,98759.13
2023-04-02T09:07:21.799Z,98761.63
2023-04-02T09:09:51.075Z,98761.47
2023-04-02T09:12:20.949Z,98765.41
2023-04-02T09:14:59.491Z,98767.53
2023-04-02T09:17:29.981Z,98766.44
2023-04-02T09:20:06.163Z,98768.13
2023-04-02T09:22:35.850Z,98767.69
2023-04-02T09:25:07.223Z,98770.59
2023-04-02T09:27:37.401Z,98775.53
2023-04-02T09:30:14.119Z,98775.91
2023-04-02T09:32:50.214Z,98781.91
2023-04-02T09:35:36.620Z,98794.38
2023-04-02T09:38:18.164Z,98798.25
2023-04-02T09:40:49.850Z,98803.66
2023-04-02T09:43:19.951Z,98808.28
2023-04-02T09:45:57.703Z,98816.34
2023-04-02T09:48:30.172Z,98814.91
2023-04-02T09:51:11.250Z,98813.09
2023-04-02T09:53:42.609Z,98817.31
2023-04-02T09:56:13.979Z,98819.31
2023-04-02T09:58:44.061Z,98817.28
2023-04-02T10:01:30.293Z,98835.84
2023-04-02T10:04:02.204Z,98825.91
2023-04-02T10:06:34.293Z,98828.47
2023-04-02T10:09:21.602Z,98825.88
2023-04-02T10:11:51.831Z,98835.00
2023-04-02T10:14:23.605Z,98830.16
2023-04-02T10:16:53.558Z,98835.94
2023-04-02T10:19:27.635Z,98845.50
2023-04-02T10:21:59.302Z,98842.94
2023-04-02T10:24:29.014Z,98850.72
2023-04-02T10:27:04.720Z,98850.00
2023-04-02T10:29:48.658Z,98846.88
2023-04-02T10:32:20.051Z,98839.03
2023-04-02T10:34:53.736Z,98852.00
2023-04-02T10:37:45.613Z,98848.06
2023-04-02T10:40:20.597Z,98849.38
2023-04-02T10:42:55.606Z,98852.56
2023-04-02T10:45:36.885Z,98847.13
2023-04-02T10:48:11.522Z,98855.34
2023-04-02T10:50:45.066Z,98860.50
2023-04-02T10:53:18.847Z,98860.19
2023-04-02T10:55:49.847Z,98868.34
2023-04-02T10:58:23.592Z,98870.09
2023-04-02T11:00:56.648Z,98874.69
2023-04-02T11:03:32.342Z,98878.75
2023-04-02T11:06:03.828Z,98881.75
2023-04-02T11:08:41.205Z,98885.72
2023-04-02T11:11:13.800Z,98887.78
2023-04-02T11:13:51.301Z,98882.09
2023-04-02T11:16:20.029Z,98895.97
2023-04-02T11:19:17.950Z,98888.94
2023-04-02T11:21:57.991Z,98888.78
2023-04-02T11:24:37.966Z,98892.56
2023-04-02T11:27:17.260Z,98892.56
2023-04-02T11:29:46.861Z,98894.63
2023-04-02T11:32:43.447Z,98900.88
2023-04-02T11:35:42.791Z,98906.66
2023-04-02T11:38:50.528Z,98901.56
2023-04-02T11:42:05.459Z,98907.72
2023-04-02T11:44:34.244Z,98902.59
2023-04-02T11:47:22.547Z,98908.56
2023-04-02T11:50:05.999Z,98918.75
2023-04-02T11:52:51.707Z,98910.44
2023-04-02T11:55:27.270Z,98916.13
2023-04-02T11:58:25.283Z,98924.72
2023-04-02T12:01:14.842Z,98914.84
2023-04-02T12:03:53.306Z,98918.19
2023-04-02T12:06:28.966Z,98918.31
2023-04-02T12:09:05.910Z,98922.91
2023-04-02T12:11:36.328Z,98926.88
2023-04-02T12:14:42.538Z,98929.22
2023-04-02T12:17:21.390Z,98935.41
2023-04-02T12:19:52.509Z,98933.22
2023-04-02T12:22:23.550Z,98938.41
2023-04-02T12:24:55.056Z,98937.97
2023-04-02T12:27:27.842Z,98937.56
2023-04-02T12:30:12.537Z,98934.13
2023-04-02T12:32:41.565Z,98934.41
2023-04-02T12:35:28.452Z,98947.84
2023-04-02T12:37:57.175Z,98944.69
2023-04-02T12:40:26.988Z,98950.31
2023-04-02T12:42:56.033Z,98953.38
2023-04-02T12:45:29.347Z,98950.66
2023-04-02T12:47:58.926Z,98954.66
2023-04-02T12:50:27.703Z,98952.84
2023-04-02T12:52:58.817Z,98955.25
2023-04-02T12:55:28.162Z,98960.91
2023-04-02T12:57:57.814Z,98965.53
2023-04-02T13:00:34.379Z,98966.69
2023-04-02T13:03:17.431Z,98960.91
2023-04-02T13:05:48.423Z,98951.22
2023-04-02T13:08:19.711Z,98958.41
2023-04-02T13:10:53.732Z,98963.22
2023-04-02T13:13:27.805Z,98959.22
2023-04-02T13:16:07.413Z,98970.84
2023-04-02T13:18:39.758Z,98963.94
2023-04-02T13:21:28.141Z,98967.63
2023-04-02T13:23:57.296Z,98970.44
2023-04-02T13:26:27.178Z,98972.28
2023-04-02T13:29:01.134Z,98975.31
2023-04-02T13:31:32.803Z,98979.56
2023-04-02T13:34:02.152Z,98984.16
2023-04-02T13:36:31.118Z,98983.56
2023-04-02T13:38:59.740Z,98984.22
2023-04-02T13:41:30.261Z,98977.25
2023-04-02T13:44:00.897Z,98987.00
2023-04-02T13:46:33.214Z,98986.41
2023-04-02T13:49:01.982Z,98986.56
2023-04-02T13:51:37.007Z,98988.59
2023-04-02T13:54:10.022Z,98998.66
2023-04-02T13:56:38.696Z,98997.53
2023-04-02T13:59:07.358Z,99000.38
2023-04-02T14:01:37.671Z,99004.22
2023-04-02T14:04:07.339Z,99004.00
2023-04-02T14:06:56.034Z,99012.06
2023-04-02T14:09:30.322Z,99013.91
2023-04-02T14:12:04.985Z,99019.19
2023-04-02T14:14:53.820Z,99022.94
2023-04-02T14:17:31.841Z,99025.25
2023-04-02T14:20:10.943Z,99032.09
2023-04-02T14:22:49.588Z,99035.38
2023-04-02T14:25:25.813Z,99039.97
2023-04-02T14:27:59.746Z,99035.97
2023-04-02T14:30:37.441Z,99038.16
2023-04-02T14:33:11.313Z,99045.00
2023-04-02T14:35:43.906Z,99049.44
2023-04-02T14:38:17.620Z,99044.22
2023-04-02T14:40:50.102Z,99059.53
2023-04-02T14:43:24.144Z,99049.53
2023-04-02T14:45:58.733Z,99058.72
2023-04-02T14:48:44.122Z,99060.75
2023-04-02T14:51:18.758Z,99061.59
2023-04-02T14:53:53.710Z,99056.84
2023-04-02T14:56:23.196Z,99062.44
2023-04-02T14:58:56.628Z,99054.03
2023-04-02T15:01:28.524Z,99063.25
2023-04-02T15:04:03.096Z,99067.47
2023-04-02T15:06:34.678Z,99064.78
2023-04-02T15:09:09.279Z,99070.03
2023-04-02T15:11:39.916Z,99067.25
2023-04-02T15:14:13.047Z,99070.31
2023-04-02T15:16:41.880Z,99077.13
2023-04-02T15:19:14.401Z,99095.00
2023-04-02T15:24:28.242Z,99095.94
2023-04-02T15:27:11.913Z,99095.13
2023-04-02T15:29:50.647Z,99107.81
2023-04-02T15:32:28.349Z,99110.06
2023-04-02T15:35:02.762Z,99111.47
2023-04-02T15:37:34.662Z,99120.97
2023-04-02T15:40:20.818Z,99131.88
2023-04-02T15:42:54.409Z,99122.25
2023-04-02T15:45:30.913Z,99127.09
2023-04-02T15:48:26.785Z,99139.34
2023-04-02T15:51:01.297Z,99145.59
2023-04-02T15:53:35.518Z,99147.22
2023-04-02T15:56:10.021Z,99146.22
2023-04-02T15:58:48.599Z,99152.22
2023-04-02T16:01:26.823Z,99151.03
2023-04-02T16:04:19.727Z,99166.28
2023-04-02T16:07:01.772Z,99172.13
2023-04-02T16:09:35.417Z,99171.75
2023-04-02T16:12:13.649Z,99169.13
2023-04-02T16:14:43.916Z,99180.56
2023-04-02T16:17:24.915Z,99195.03
2023-04-02T16:19:57.907Z,99185.81
2023-04-02T16:22:30.036Z,99188.44
2023-04-02T16:25:02.065Z,99198.66
2023-04-02T16:27:33.954Z,99193.44
2023-04-02T16:30:27.495Z,99196.25
2023-04-02T16:33:04.578Z,99204.69
2023-04-02T16:35:43.109Z,99210.50
2023-04-02T16:38:25.760Z,99222.13
2023-04-02T16:41:08.528Z,99225.34
2023-04-02T16:43:44.504Z,99232.38
2023-04-02T16:46:31.738Z,99239.16
2023-04-02T16:49:14.741Z,99245.56
2023-04-02T16:51:47.030Z,99245.56
2023-04-02T16:54:20.512Z,99249.34
2023-04-02T16:56:58.408Z,99255.00
2023-04-02T16:59:32.848Z,99252.97
2023-04-02T17:02:05.473Z,99263.03
2023-04-02T17:04:51.381Z,99269.22
2023-04-02T17:07:30.782Z,99275.91
2023-04-02T17:10:08.590Z,99279.72
2023-04-02T17:12:42.645Z,99276.69
2023-04-02T17:15:27.221Z,99281.44
2023-04-02T17:17:58.568Z,99296.28
2023-04-02T17:20:27.371Z,99302.47
2023-04-02T17:22:56.828Z,99301.84
2023-04-02T17:25:29.747Z,99304.88
2023-04-02T17:27:58.622Z,99316.63
2023-04-02T17:30:36.094Z,99321.66
2023-04-02T17:33:08.373Z,99327.81
2023-04-02T17:35:44.994Z,99325.16
2023-04-02T17:38:19.678Z,99343.28
2023-04-02T17:40:53.767Z,99346.69
2023-04-02T17:43:34.042Z,99350.72
2023-04-02T17:46:06.047Z,99354.63
2023-04-02T17:48:41.865Z,99362.03
2023-04-02T17:51:17.180Z,99362.22
2023-04-02T17:53:54.928Z,99374.00
2023-04-02T17:56:34.917Z,99377.03
2023-04-02T17:59:26.380Z,99391.50
2023-04-02T18:02:03.192Z,99390.63
2023-04-02T18:04:41.603Z,99386.75
2023-04-02T18:07:25.974Z,99403.19
2023-04-02T18:10:02.367Z,99400.44
2023-04-02T18:12:42.228Z,99401.25
2023-04-02T18:15:26.355Z,99409.66
2023-04-02T18:17:58.398Z,99424.78
2023-04-02T18:20:32.707Z,99429.41
2023-04-02T18:23:08.751Z,99432.66
2023-04-02T18:25:50.406Z,99446.75
2023-04-02T18:28:34.786Z,99457.44
2023-04-02T18:31:08.270Z,99446.66
2023-04-02T18:33:56.864Z,99456.81
2023-04-02T18:36:33.533Z,99461.66
2023-04-02T18:39:06.327Z,99467.06
2023-04-02T18:41:44.961Z,99481.78
2023-04-02T18:44:28.537Z,99481.06
2023-04-02T18:46:59.978Z,99483.50
2023-04-02T18:49:29.895Z,99494.34
2023-04-02T18:52:01.839Z,99503.25
2023-04-02T18:54:33.760Z,99505.84
2023-04-02T18:57:06.850Z,99511.31
2023-04-02T18:59:42.543Z,99520.28
2023-04-02T19:02:30.533Z,99526.06
2023-04-02T19:05:01.548Z,99543.66
2023-04-02T19:07:32.867Z,99538.81
2023-04-02T19:10:08.924Z,99545.06
2023-04-02T19:12:37.553Z,99553.91
2023-04-02T19:15:17.445Z,99550.31
2023-04-02T19:17:48.158Z,99560.72
2023-04-02T19:20:26.557Z,99562.13
2023-04-02T19:23:00.861Z,99564.66
2023-04-02T19:25:41.519Z,99568.69
2023-04-02T19:28:16.233Z,99581.69
2023-04-02T19:30:57.579Z,99586.91
2023-04-02T19:33:35.404Z,99582.78
2023-04-02T19:36:10.871Z,99599.84
2023-04-02T19:38:50.761Z,99607.09
2023-04-02T19:41:27.243Z,99611.81
2023-04-02T19:43:56.380Z,99611.53
2023-04-02T19:46:27.288Z,99616.59
2023-04-02T19:49:03.103Z,99620.38
2023-04-02T19:51:31.849Z,99617.09
2023-04-02T19:54:01.001Z,99635.59
2023-04-02T19:56:29.733Z,99628.13
2023-04-02T19:59:00.164Z,99628.94
2023-04-02T20:01:32.487Z,99635.06
2023-04-02T20:04:01.348Z,99643.91
2023-04-02T20:06:31.543Z,99648.78
2023-04-02T20:09:00.767Z,99650.41
2023-04-02T20:11:29.401Z,99647.19
2023-04-02T20:13:58.170Z,99652.03
2023-04-02T20:16:26.982Z,99657.25
2023-04-02T20:18:57.174Z,99655.50
2023-04-02T20:21:26.730Z,99661.31
2023-04-02T20:23:55.814Z,99661.81
2023-04-02T20:26:24.467Z,99662.31
2023-04-02T20:28:53.189Z,99670.91
2023-04-02T20:31:21.834Z,99667.06
2023-04-02T20:33:50.683Z,99672.88
2023-04-02T20:36:21.779Z,99670.28
2023-04-02T20:38:51.338Z,99679.22
2023-04-02T20:41:21.771Z,99678.75
2023-04-02T20:43:50.860Z,99683.31
2023-04-02T20:46:19.954Z,99698.06
2023-04-02T20:48:48.614Z,99702.13
2023-04-02T20:51:17.263Z,99704.38
2023-04-02T20:53:47.676Z,99700.66
2023-04-02T20:56:17.699Z,99708.59
2023-04-02T20:58:46.499Z,99714.94
2023-04-02T21:01:18.781Z,99720.91
2023-04-02T21:03:48.287Z,99722.38
2023-04-02T21:06:18.926Z,99729.34
2023-04-02T21:08:49.746Z,99729.84
2023-04-02T21:11:18.937Z,99729.19
2023-04-02T21:13:47.529Z,99735.22
2023-04-02T21:16:17.600Z,99731.63
2023-04-02T21:18:47.408Z,99733.25
2023-04-02T21:21:16.792Z,99732.59
2023-04-02T21:23:45.959Z,99748.69
2023-04-02T21:26:17.384Z,99741.38
2023-04-02T21:28:46.652Z,99737.94
2023-04-02T21:31:16.675Z,99745.09
2023-04-02T21:33:47.367Z,99742.50
2023-04-02T21:36:17.707Z,99752.25
2023-04-02T21:38:47.730Z,99740.41
2023-04-02T21:41:19.436Z,99751.75
2023-04-02T21:43:48.386Z,99749.97
2023-04-02T21:46:17.263Z,99754.53
2023-04-02T21:48:46.594Z,99751.09
2023-04-02T21:51:16.876Z,99754.97
2023-04-02T21:53:46.052Z,99750.13
2023-04-02T21:56:18.345Z,99750.63
2023-04-02T21:58:48.092Z,99757.91
2023-04-02T22:01:26.932Z,99763.44
2023-04-02T22:03:56.877Z,99764.38
2023-04-02T22:06:27.319Z,99765.22
2023-04-02T22:08:58.207Z,99773.78
2023-04-02T22:11:30.702Z,99773.16
2023-04-02T22:14:00.242Z,99778.31
2023-04-02T22:16:30.441Z,99786.75
2023-04-02T22:19:00.880Z,99784.47
2023-04-02T22:21:30.724Z,99783.84
2023-04-02T22:24:00.367Z,99785.75
2023-04-02T22:26:31.194Z,99793.56
2023-04-02T22:29:00.336Z,99794.69
2023-04-02T22:31:31.293Z,99802.66
2023-04-02T22:34:00.862Z,99797.63
2023-04-02T22:36:30.172Z,99790.97
2023-04-02T22:38:59.442Z,99800.56
2023-04-02T22:41:31.887Z,99795.69
2023-04-02T22:44:01.823Z,99799.72
2023-04-02T22:46:31.134Z,99798.13
2023-04-02T22:48:59.899Z,99791.94
2023-04-02T22:51:28.857Z,99788.88
2023-04-02T22:53:58.236Z,99784.81
2023-04-02T22:56:28.730Z,99787.22
2023-04-02T22:58:58.868Z,99794.81
2023-04-02T23:01:29.957Z,99804.38
2023-04-02T23:03:58.746Z,99794.34
2023-04-02T23:06:28.117Z,99794.19
2023-04-02T23:08:56.847Z,99801.66
2023-04-02T23:11:27.184Z,99791.91
2023-04-02T23:13:58.334Z,99783.47
2023-04-02T23:16:27.878Z,99794.81
2023-04-02T23:18:57.235Z,99789.00
2023-04-02T23:21:26.882Z,99790.22
2023-04-02T23:23:55.790Z,99796.13
2023-04-02T23:26:26.041Z,99794.44
2023-04-02T23:28:54.645Z,99790.53
2023-04-02T23:31:25.424Z,99791.81
2023-04-02T23:33:54.058Z,99794.88
2023-04-02T23:36:24.914Z,99791.13
2023-04-02T23:38:55.123Z,99786.09
2023-04-02T23:41:26.658Z,99784.75
2023-04-02T23:43:55.864Z,99790.25
2023-04-02T23:46:26.698Z,99788.81
2023-04-02T23:48:56.149Z,99781.34
2023-04-02T23:51:25.894Z,99783.47
2023-04-02T23:53:55.420Z,99781.75
2023-04-02T23:56:24.446Z,99781.59
2023-04-02T23:58:53.065Z,99784.03
